Time;durP1;ratioP1;P1;durP2;ratioP2;P2;SDS_P1;SDS_P2;PMS_P1;PMS_P2;Temp;Humidity;BMP_temperature;BMP_pressure;BME280_temperature;BME280_humidity;BME280_pressure;Samples;Min_cycle;Max_cycle;Signal;HPM_P1;HPM_P2
2022/12/21 00:01:20;;;;;;;127.15;19.45;;;6.00;99.90;;;;;;5091358;28;20051;-81
2022/12/21 00:03:46;;;;;;;308.55;21.85;;;5.90;99.90;;;;;;5091522;28;20044;-81
2022/12/21 00:06:12;;;;;;;;;;;6.00;99.90;;;;;;5091596;28;20048;-80
2022/12/21 00:08:43;;;;;;;310.73;23.83;;;5.60;99.90;;;;;;5091161;28;19924;-80
2022/12/21 00:11:11;;;;;;;348.75;24.30;;;5.70;99.90;;;;;;5091245;28;20044;-80
2022/12/21 00:13:36;;;;;;;196.90;20.80;;;5.80;99.90;;;;;;5092493;28;20083;-80
2022/12/21 00:16:09;;;;;;;119.05;18.25;;;5.70;99.90;;;;;;5090676;28;20495;-79
2022/12/21 00:18:36;;;;;;;269.08;23.33;;;5.90;99.90;;;;;;5091097;28;20054;-79
2022/12/21 00:21:05;;;;;;;352.17;23.65;;;6.00;99.90;;;;;;5091857;28;20067;-79
2022/12/21 00:23:32;;;;;;;354.90;23.25;;;5.60;99.90;;;;;;5092053;28;20090;-79
2022/12/21 00:25:59;;;;;;;275.80;21.38;;;5.60;99.90;;;;;;5091986;28;20139;-78
2022/12/21 00:28:25;;;;;;;155.88;18.75;;;5.50;99.90;;;;;;5091810;28;20074;-77
2022/12/21 00:30:51;;;;;;;94.03;16.95;;;5.40;99.90;;;;;;5090693;28;20143;-78
2022/12/21 00:33:17;;;;;;;145.60;16.10;;;5.50;99.90;;;;;;5091888;28;20156;-78
2022/12/21 00:35:52;;;;;;;240.25;19.40;;;5.60;99.90;;;;;;5091664;28;20056;-77
2022/12/21 00:38:18;;;;;;;278.23;20.83;;;5.60;99.90;;;;;;5090808;28;20587;-77
2022/12/21 00:40:45;;;;;;;76.05;14.52;;;5.40;99.90;;;;;;5090514;28;20048;-77
2022/12/21 00:43:10;;;;;;;107.78;14.93;;;5.50;99.90;;;;;;5091808;28;20059;-77
2022/12/21 00:45:37;;;;;;;236.50;16.17;;;5.40;99.90;;;;;;5091533;28;20052;-75
2022/12/21 00:48:03;;;;;;;328.95;22.08;;;5.20;99.90;;;;;;5090414;28;20043;-75
2022/12/21 00:50:28;;;;;;;219.13;18.00;;;5.20;99.90;;;;;;5091171;28;20488;-75
2022/12/21 00:52:54;;;;;;;301.08;22.23;;;5.30;99.90;;;;;;5091703;28;20073;-75
2022/12/21 00:55:19;;;;;;;219.40;18.92;;;4.90;99.90;;;;;;5092011;28;20181;-75
2022/12/21 00:57:45;;;;;;;105.25;16.58;;;5.20;99.90;;;;;;5090478;28;20044;-75
2022/12/21 01:00:11;;;;;;;128.40;17.02;;;4.90;99.90;;;;;;5091798;28;20503;-75
2022/12/21 01:02:37;;;;;;;212.93;20.02;;;4.60;99.90;;;;;;5091718;28;20497;-78
2022/12/21 01:05:03;;;;;;;159.88;18.20;;;5.00;99.90;;;;;;5090235;28;20190;-78
2022/12/21 01:07:29;;;;;;;185.00;22.02;;;5.30;99.90;;;;;;5091663;28;20127;-78
2022/12/21 01:09:54;;;;;;;69.07;16.08;;;4.70;99.90;;;;;;5090288;28;20139;-78
2022/12/21 01:12:20;;;;;;;96.35;18.20;;;4.90;99.90;;;;;;5091614;28;20044;-78
2022/12/21 01:14:46;;;;;;;103.30;17.92;;;5.00;99.90;;;;;;5091501;28;20044;-78
2022/12/21 01:17:12;;;;;;;99.97;17.88;;;5.10;99.90;;;;;;5090267;28;20048;-78
2022/12/21 01:19:37;;;;;;;61.13;15.43;;;5.10;99.90;;;;;;5091353;28;20067;-78
2022/12/21 01:22:03;;;;;;;118.68;19.77;;;5.30;99.90;;;;;;5091475;28;20105;-78
2022/12/21 01:24:28;;;;;;;96.80;18.10;;;5.00;99.90;;;;;;5090227;28;20044;-78
2022/12/21 01:26:54;;;;;;;81.95;16.83;;;5.00;99.90;;;;;;5091429;28;20052;-78
2022/12/21 01:29:20;;;;;;;70.30;18.13;;;4.80;99.90;;;;;;5089858;28;20048;-77
2022/12/21 01:31:46;;;;;;;130.32;19.73;;;4.90;99.90;;;;;;5091378;28;20083;-78
2022/12/21 01:34:11;;;;;;;101.25;17.17;;;5.20;99.90;;;;;;5090187;28;20130;-78
2022/12/21 01:36:37;;;;;;;109.80;17.35;;;4.50;99.90;;;;;;5091651;28;20500;-78
2022/12/21 01:39:03;;;;;;;141.80;19.23;;;5.00;99.90;;;;;;5091365;28;20055;-78
2022/12/21 01:41:29;;;;;;;267.15;24.35;;;4.60;99.90;;;;;;5091601;28;20122;-79
2022/12/21 01:43:56;;;;;;;131.93;18.80;;;4.60;99.90;;;;;;5091453;28;20056;-79
2022/12/21 01:46:28;;;;;;;126.90;19.35;;;;;;;;;;5090035;28;20048;-78
2022/12/21 01:49:22;;;;;;;122.68;19.25;;;5.20;99.90;;;;;;5073265;28;20055;-78
2022/12/21 01:52:01;;;;;;;149.07;20.70;;;4.70;99.90;;;;;;5090725;28;20517;-78
2022/12/21 01:54:33;;;;;;;128.18;18.65;;;4.80;99.90;;;;;;5094943;28;20044;-78
2022/12/21 01:57:01;;;;;;;138.50;20.58;;;5.30;99.90;;;;;;5094945;28;20043;-78
2022/12/21 01:59:30;;;;;;;213.23;22.83;;;5.00;99.90;;;;;;5093876;28;20047;-79
2022/12/21 02:01:59;;;;;;;123.85;19.92;;;5.10;99.90;;;;;;5094593;28;20036;-78
2022/12/21 02:04:25;;;;;;;122.25;19.83;;;5.10;99.90;;;;;;5094716;28;20408;-79
2022/12/21 02:06:55;;;;;;;155.82;18.63;;;5.00;99.90;;;;;;5093773;28;20047;-79
2022/12/21 02:09:22;;;;;;;189.55;22.58;;;4.80;99.90;;;;;;5093599;28;20472;-79
2022/12/21 02:11:49;;;;;;;133.05;19.83;;;5.10;99.90;;;;;;5093571;28;20158;-78
2022/12/21 02:14:15;;;;;;;271.73;25.42;;;4.80;99.90;;;;;;5093032;28;20052;-79
2022/12/21 02:16:50;;;;;;;100.75;20.33;;;4.80;99.90;;;;;;5093513;28;20373;-79
2022/12/21 02:19:45;;;;;;;116.05;20.35;;;5.10;99.90;;;;;;5093908;28;20254;-80
2022/12/21 02:22:35;;;;;;;121.72;20.85;;;4.70;99.90;;;;;;5067950;28;20082;-79
2022/12/21 02:25:38;;;;;;;149.93;19.20;;;5.10;99.90;;;;;;5094460;28;20438;-80
2022/12/21 02:28:30;;;;;;;106.72;19.65;;;5.10;99.90;;;;;;5092991;28;20164;-79
2022/12/21 02:31:14;;;;;;;102.63;18.15;;;5.10;99.90;;;;;;5076044;28;20051;-80
2022/12/21 02:33:48;;;;;;;99.97;18.40;;;4.70;99.90;;;;;;5092975;28;20455;-79
2022/12/21 02:36:56;;;;;;;82.47;17.50;;;5.00;99.90;;;;;;5094055;28;20056;-79
2022/12/21 02:39:37;;;;;;;62.28;15.50;;;5.10;99.90;;;;;;5094065;28;20097;-79
2022/12/21 02:45:35;;;;;;;98.05;17.27;;;;;;;;;;5092574;28;20082;-79
2022/12/21 02:48:40;;;;;;;112.47;17.95;;;4.60;99.90;;;;;;5093914;28;20407;-78
2022/12/21 02:51:14;;;;;;;59.42;15.45;;;4.60;99.90;;;;;;5094039;28;20097;-79
2022/12/21 02:53:40;;;;;;;102.72;16.85;;;5.00;99.90;;;;;;5093980;28;20486;-79
2022/12/21 02:56:14;;;;;;;63.13;15.70;;;4.90;99.90;;;;;;5094053;28;20127;-79
2022/12/21 02:58:41;;;;;;;70.43;16.67;;;4.80;99.90;;;;;;5093938;28;20051;-79
2022/12/21 03:01:21;;;;;;;107.60;16.75;;;4.60;99.90;;;;;;5092171;28;20051;-79
2022/12/21 03:04:18;;;;;;;75.05;14.85;;;4.60;99.90;;;;;;5093617;28;20098;-79
2022/12/21 03:06:57;;;;;;;92.22;16.25;;;4.40;99.90;;;;;;5092420;28;20047;-78
2022/12/21 03:09:47;;;;;;;84.72;16.63;;;4.40;99.90;;;;;;5093113;28;20141;-78
2022/12/21 03:12:19;;;;;;;130.07;18.38;;;4.80;99.90;;;;;;5092274;28;20052;-80
2022/12/21 03:14:57;;;;;;;130.27;17.13;;;;;;;;;;5075218;28;20062;-80
2022/12/21 03:17:45;;;;;;;108.07;17.13;;;4.80;99.90;;;;;;5075309;28;20075;-80
2022/12/21 03:20:13;;;;;;;116.38;18.48;;;4.50;99.90;;;;;;5092246;28;20156;-80
2022/12/21 03:22:46;;;;;;;132.90;18.45;;;;;;;;;;5092828;28;20564;-80
2022/12/21 03:25:24;;;;;;;110.70;17.30;;;4.80;99.90;;;;;;5092136;28;20472;-79
2022/12/21 03:27:52;;;;;;;90.30;16.70;;;;;;;;;;5092807;28;20040;-79
2022/12/21 03:30:20;;;;;;;126.00;16.52;;;4.90;99.90;;;;;;5092954;28;20071;-80
2022/12/21 03:33:02;;;;;;;114.82;16.63;;;4.70;99.90;;;;;;5075095;28;20044;-79
2022/12/21 03:35:39;;;;;;;119.88;16.85;;;4.90;99.90;;;;;;5092930;28;20059;-79
2022/12/21 03:38:10;;;;;;;126.80;16.13;;;4.90;99.90;;;;;;5092556;28;20559;-79
2022/12/21 03:40:40;;;;;;;115.53;15.63;;;4.60;99.90;;;;;;5091685;28;20052;-81
2022/12/21 03:43:19;;;;;;;155.90;16.92;;;4.80;99.90;;;;;;5092483;28;20055;-80
2022/12/21 03:45:53;;;;;;;87.50;14.98;;;4.80;99.90;;;;;;5092730;28;20051;-80
2022/12/21 03:48:35;;;;;;;120.63;15.55;;;4.70;99.90;;;;;;5074350;28;20048;-79
2022/12/21 03:51:06;;;;;;;107.00;14.18;;;4.90;99.90;;;;;;5092787;28;20059;-80
2022/12/21 03:53:52;;;;;;;101.10;14.77;;;4.50;99.90;;;;;;5092734;28;20056;-80
2022/12/21 03:56:30;;;;;;;120.20;14.85;;;4.80;99.90;;;;;;5074509;28;20067;-80
2022/12/21 03:58:57;;;;;;;106.88;14.23;;;4.70;99.90;;;;;;5091328;28;20457;-79
2022/12/21 04:02:01;;;;;;;125.07;16.02;;;4.80;99.90;;;;;;5091277;28;20068;-81
2022/12/21 04:04:36;;;;;;;144.73;15.95;;;5.10;99.90;;;;;;5068531;28;20055;-81
2022/12/21 04:07:06;;;;;;;107.43;15.30;;;5.10;99.90;;;;;;5091320;28;20044;-79
2022/12/21 04:09:32;;;;;;;107.75;14.63;;;4.90;99.90;;;;;;5092257;28;20036;-79
2022/12/21 04:14:42;;;;;;;102.43;13.50;;;4.90;99.90;;;;;;5090447;28;20073;-80
2022/12/21 04:17:07;;;;;;;132.05;14.50;;;5.00;99.90;;;;;;5074231;28;20040;-81
2022/12/21 04:30:31;;;;;;;142.10;17.52;;;5.10;99.90;;;;;;5090985;28;20059;-80
2022/12/21 04:32:57;;;;;;;166.65;14.82;;;4.90;99.90;;;;;;5092070;28;20047;-81
2022/12/21 04:35:23;;;;;;;134.88;14.60;;;5.30;99.90;;;;;;5090653;28;20472;-80
2022/12/21 04:37:48;;;;;;;153.55;15.57;;;5.20;99.90;;;;;;5091923;28;20089;-81
2022/12/21 04:40:14;;;;;;;128.68;14.57;;;5.10;99.90;;;;;;5090540;28;20062;-81
2022/12/21 04:42:40;;;;;;;147.65;15.88;;;5.10;99.90;;;;;;5091778;28;20052;-79
2022/12/21 04:45:06;;;;;;;132.23;15.68;;;4.90;99.90;;;;;;5090787;28;20052;-79
2022/12/21 04:47:32;;;;;;;126.18;13.95;;;5.00;99.90;;;;;;5090700;28;20048;-80
2022/12/21 04:49:57;;;;;;;146.35;14.73;;;5.10;99.90;;;;;;5091857;28;20173;-80
2022/12/21 04:52:23;;;;;;;133.95;14.77;;;5.10;99.90;;;;;;5092096;28;20481;-80
2022/12/21 04:54:49;;;;;;;141.50;14.75;;;5.10;99.90;;;;;;5091540;28;20047;-81
2022/12/21 04:57:16;;;;;;;184.70;16.00;;;5.10;99.90;;;;;;5090822;28;20519;-80
2022/12/21 04:59:42;;;;;;;162.98;15.85;;;4.90;99.90;;;;;;5090560;28;20123;-79
2022/12/21 05:02:07;;;;;;;163.43;16.40;;;5.00;99.90;;;;;;5091869;28;20131;-81
2022/12/21 05:04:33;;;;;;;202.35;17.00;;;5.10;99.90;;;;;;5091735;28;20048;-81
2022/12/21 05:06:59;;;;;;;195.82;17.10;;;5.50;99.90;;;;;;5091613;28;20067;-82
2022/12/21 05:09:25;;;;;;;143.45;15.45;;;5.40;99.90;;;;;;5090081;28;20040;-82
2022/12/21 05:11:52;;;;;;;123.10;14.93;;;5.30;99.90;;;;;;5091623;28;20078;-81
2022/12/21 05:14:18;;;;;;;134.15;14.95;;;5.30;99.90;;;;;;5090282;28;20039;-81
2022/12/21 05:16:43;;;;;;;121.65;14.20;;;5.10;99.90;;;;;;5091555;28;20106;-81
2022/12/21 05:19:09;;;;;;;141.23;15.38;;;4.90;99.90;;;;;;5091325;28;20063;-80
2022/12/21 05:21:35;;;;;;;121.38;14.65;;;5.00;99.90;;;;;;5091305;28;20044;-80
2022/12/21 05:24:00;;;;;;;125.97;14.85;;;5.00;99.90;;;;;;5090036;28;20052;-79
2022/12/21 05:26:26;;;;;;;165.82;14.55;;;5.00;99.90;;;;;;5090338;28;20492;-80
2022/12/21 05:28:52;;;;;;;170.45;15.75;;;4.60;99.90;;;;;;5093692;28;20565;-80
2022/12/21 05:31:18;;;;;;;135.70;14.80;;;4.90;99.90;;;;;;5094292;28;20136;-81
2022/12/21 05:33:44;;;;;;;116.05;15.70;;;5.20;99.90;;;;;;5094093;28;20040;-81
2022/12/21 05:36:13;;;;;;;138.95;15.32;;;5.00;99.90;;;;;;5093925;28;20056;-79
2022/12/21 05:38:39;;;;;;;139.90;15.35;;;5.00;99.90;;;;;;5093927;28;20059;-81
2022/12/21 05:41:05;;;;;;;129.05;15.00;;;4.70;99.90;;;;;;5094101;28;20043;-81
2022/12/21 05:43:31;;;;;;;195.80;18.35;;;4.90;99.90;;;;;;5095077;28;20048;-81
2022/12/21 05:46:01;;;;;;;99.78;15.73;;;5.00;99.90;;;;;;5095038;28;20097;-81
2022/12/21 05:48:28;;;;;;;126.53;16.15;;;4.90;99.90;;;;;;5077085;28;20044;-81
2022/12/21 05:50:53;;;;;;;150.02;15.88;;;4.50;99.90;;;;;;5095077;28;20040;-81
2022/12/21 05:53:19;;;;;;;145.98;16.73;;;4.80;99.90;;;;;;5095260;28;20423;-82
2022/12/21 05:55:45;;;;;;;224.00;17.80;;;5.10;99.90;;;;;;5093741;28;20071;-81
2022/12/21 05:58:11;;;;;;;229.30;18.63;;;5.30;99.90;;;;;;5095092;28;20094;-81
2022/12/21 06:00:37;;;;;;;147.63;17.35;;;5.10;99.90;;;;;;5093506;28;20481;-81
2022/12/21 06:03:04;;;;;;;149.60;16.25;;;5.00;99.90;;;;;;5095059;28;20044;-82
2022/12/21 06:05:30;;;;;;;150.85;16.90;;;;;;;;;;5094662;28;20365;-81
2022/12/21 06:07:56;;;;;;;188.18;18.35;;;4.90;99.90;;;;;;5093078;28;20055;-80
2022/12/21 06:10:22;;;;;;;166.05;17.23;;;5.00;99.90;;;;;;5094469;28;20052;-79
2022/12/21 06:12:47;;;;;;;183.88;20.02;;;4.90;99.90;;;;;;5076469;28;20092;-80
2022/12/21 06:15:13;;;;;;;227.90;19.95;;;5.10;99.90;;;;;;5094497;28;20044;-80
2022/12/21 06:17:39;;;;;;;166.98;17.13;;;5.10;99.90;;;;;;5076354;28;20129;-81
2022/12/21 06:20:06;;;;;;;131.60;16.52;;;5.10;99.90;;;;;;5093425;28;20040;-80
2022/12/21 06:22:35;;;;;;;211.15;19.40;;;;;;;;;;5094109;28;20099;-80
2022/12/21 06:25:02;;;;;;;239.55;21.27;;;4.90;99.90;;;;;;5093166;28;20134;-81
2022/12/21 06:27:28;;;;;;;157.75;18.10;;;5.00;99.90;;;;;;5094332;28;20098;-79
2022/12/21 06:29:54;;;;;;;173.00;18.77;;;5.20;99.90;;;;;;5094142;28;20118;-80
2022/12/21 06:32:19;;;;;;;231.32;21.17;;;5.00;99.90;;;;;;5094105;28;20056;-81
2022/12/21 06:34:45;;;;;;;185.52;18.58;;;5.00;99.90;;;;;;5076276;28;20042;-81
2022/12/21 06:37:11;;;;;;;199.95;18.83;;;4.90;99.90;;;;;;5092486;28;20105;-81
2022/12/21 06:39:36;;;;;;;190.43;20.30;;;5.20;99.90;;;;;;5092416;28;20056;-80
2022/12/21 06:42:03;;;;;;;222.25;19.60;;;5.40;99.90;;;;;;5093894;28;20051;-80
2022/12/21 06:44:28;;;;;;;168.63;18.27;;;5.00;99.90;;;;;;5093957;28;20078;-81
2022/12/21 06:46:54;;;;;;;177.23;18.95;;;5.00;99.90;;;;;;5093818;28;20092;-82
2022/12/21 06:49:20;;;;;;;194.48;20.30;;;5.10;99.90;;;;;;5092398;28;20052;-81
2022/12/21 06:51:45;;;;;;;186.25;18.27;;;4.80;99.90;;;;;;5093503;28;20120;-81
2022/12/21 06:54:11;;;;;;;199.73;19.70;;;5.10;99.90;;;;;;5093672;28;20515;-81
2022/12/21 06:56:37;;;;;;;164.23;18.35;;;5.20;99.90;;;;;;5075870;28;20079;-80
2022/12/21 06:59:03;;;;;;;162.00;18.70;;;4.90;99.90;;;;;;5075668;28;20090;-80
2022/12/21 07:01:32;;;;;;;170.40;19.08;;;5.40;99.90;;;;;;5066280;28;20056;-82
2022/12/21 07:03:59;;;;;;;158.93;18.92;;;5.00;99.90;;;;;;5091021;28;20130;-81
2022/12/21 07:06:26;;;;;;;161.98;19.48;;;5.10;99.90;;;;;;5090723;28;20109;-80
2022/12/21 07:08:53;;;;;;;152.63;19.15;;;5.20;99.90;;;;;;5091628;28;20488;-80
2022/12/21 07:11:21;;;;;;;227.02;22.30;;;5.20;99.90;;;;;;5108648;28;20048;-82
2022/12/21 07:13:48;;;;;;;206.85;21.75;;;5.00;99.90;;;;;;5092253;28;20523;-80
2022/12/21 07:16:15;;;;;;;302.65;23.88;;;;;;;;;;5074624;28;20059;-80
2022/12/21 07:18:42;;;;;;;191.43;19.95;;;5.20;99.90;;;;;;5091791;28;20097;-82
2022/12/21 07:21:11;;;;;;;231.23;21.80;;;5.30;99.90;;;;;;5108127;28;20438;-81
2022/12/21 07:23:38;;;;;;;245.82;20.48;;;5.50;99.90;;;;;;5092597;28;20048;-81
2022/12/21 07:26:21;;;;;;;209.20;20.83;;;;;;;;;;5073999;28;20377;-81
2022/12/21 07:28:47;;;;;;;212.90;22.13;;;5.30;99.90;;;;;;5090994;28;20102;-81
2022/12/21 07:31:16;;;;;;;208.13;23.92;;;5.30;99.90;;;;;;5091149;28;20074;-81
2022/12/21 07:33:42;;;;;;;236.02;22.17;;;5.10;99.90;;;;;;5092295;28;20124;-80
2022/12/21 07:36:09;;;;;;;269.55;22.23;;;5.70;99.90;;;;;;5107745;28;20047;-81
2022/12/21 07:38:36;;;;;;;242.77;22.65;;;5.10;99.90;;;;;;5091334;28;20101;-81
2022/12/21 07:41:04;;;;;;;243.68;23.10;;;5.30;99.90;;;;;;5092132;28;20055;-81
2022/12/21 07:43:30;;;;;;;203.35;20.67;;;5.10;99.90;;;;;;5108272;28;20086;-81
2022/12/21 07:45:56;;;;;;;375.15;25.60;;;5.40;99.90;;;;;;5092316;28;20118;-81
2022/12/21 07:48:22;;;;;;;129.82;19.45;;;5.20;99.90;;;;;;5092269;28;20209;-81
2022/12/21 07:50:49;;;;;;;264.52;24.20;;;5.40;99.90;;;;;;5091062;28;20053;-79
2022/12/21 07:53:16;;;;;;;206.85;22.20;;;5.60;99.90;;;;;;5090794;28;20040;-82
2022/12/21 07:55:42;;;;;;;211.25;22.67;;;5.30;99.90;;;;;;5091913;28;20495;-81
2022/12/21 07:58:08;;;;;;;250.35;24.17;;;5.40;99.90;;;;;;5091251;28;20048;-81
2022/12/21 08:00:37;;;;;;;265.85;24.23;;;5.10;99.90;;;;;;5090894;28;20553;-80
2022/12/21 08:03:04;;;;;;;267.52;24.70;;;5.10;99.90;;;;;;5108407;28;20056;-81
2022/12/21 08:05:30;;;;;;;302.17;25.70;;;5.40;99.90;;;;;;5107996;28;20503;-82
2022/12/21 08:07:57;;;;;;;271.85;25.35;;;5.60;99.90;;;;;;5092433;28;20048;-79
2022/12/21 08:10:23;;;;;;;238.18;25.80;;;5.20;99.90;;;;;;5092300;28;20048;-81
2022/12/21 08:12:48;;;;;;;222.48;25.02;;;5.80;99.90;;;;;;5095085;28;20460;-80
2022/12/21 08:15:17;;;;;;;256.10;25.05;;;5.50;99.90;;;;;;5078435;28;20044;-80
2022/12/21 08:17:42;;;;;;;218.57;25.38;;;5.50;99.90;;;;;;5092297;28;20488;-80
2022/12/21 08:20:08;;;;;;;239.30;25.45;;;5.40;99.90;;;;;;5090612;28;20046;-80
2022/12/21 08:22:34;;;;;;;240.30;27.83;;;5.30;99.90;;;;;;5091156;28;20105;-81
2022/12/21 08:25:00;;;;;;;194.45;25.08;;;6.00;99.90;;;;;;5092140;28;20480;-81
2022/12/21 08:27:25;;;;;;;258.38;28.33;;;5.10;99.90;;;;;;5090872;28;20048;-82
2022/12/21 08:29:51;;;;;;;252.77;27.92;;;5.30;99.90;;;;;;5092080;28;20114;-81
2022/12/21 08:32:17;;;;;;;221.95;27.63;;;5.40;99.90;;;;;;5091529;28;20181;-77
2022/12/21 08:34:42;;;;;;;277.55;28.30;;;5.40;99.90;;;;;;5092077;28;20048;-82
2022/12/21 08:37:08;;;;;;;223.18;25.90;;;5.40;99.90;;;;;;5092045;28;20517;-81
2022/12/21 08:39:34;;;;;;;301.52;27.85;;;6.00;99.90;;;;;;5091997;28;20434;-82
2022/12/21 08:42:00;;;;;;;222.13;26.58;;;6.00;99.90;;;;;;5091880;28;20515;-81
2022/12/21 08:44:25;;;;;;;245.60;28.33;;;5.80;99.90;;;;;;5091934;28;20044;-80
2022/12/21 08:46:51;;;;;;;223.18;25.75;;;6.00;99.90;;;;;;5091630;28;20048;-82
2022/12/21 08:49:17;;;;;;;236.30;27.30;;;5.70;99.90;;;;;;5090470;28;20459;-82
2022/12/21 08:51:42;;;;;;;225.18;27.30;;;6.00;99.90;;;;;;5091885;28;20048;-82
2022/12/21 08:54:08;;;;;;;205.90;27.50;;;5.80;99.90;;;;;;5090626;28;20250;-81
2022/12/21 08:56:35;;;;;;;223.25;26.40;;;5.70;99.90;;;;;;5091880;28;20131;-81
2022/12/21 08:59:05;;;;;;;322.55;33.97;;;;;;;;;;5091790;28;20044;-82
2022/12/21 09:01:32;;;;;;;197.57;25.92;;;6.10;99.90;;;;;;5093379;28;20134;-81
2022/12/21 09:03:58;;;;;;;197.98;26.35;;;6.10;99.90;;;;;;5095865;28;20370;-82
2022/12/21 09:06:24;;;;;;;;;;;5.50;99.90;;;;;;5095295;28;20064;-78
2022/12/21 09:08:50;;;;;;;225.73;27.40;;;5.80;99.90;;;;;;5095724;28;19927;-81
2022/12/21 09:11:19;;;;;;;208.25;29.23;;;6.00;99.90;;;;;;5095758;28;20048;-82
2022/12/21 09:13:45;;;;;;;228.38;29.40;;;6.20;99.90;;;;;;5095701;28;20043;-83
2022/12/21 09:16:14;;;;;;;185.15;27.88;;;6.00;99.90;;;;;;5077545;28;20533;-83
2022/12/21 09:18:41;;;;;;;193.25;27.88;;;5.70;99.90;;;;;;5094239;28;20037;-82
2022/12/21 09:21:06;;;;;;;162.57;28.10;;;6.00;99.90;;;;;;5095553;28;20048;-82
2022/12/21 09:23:32;;;;;;;146.98;28.35;;;6.10;99.90;;;;;;5095578;28;20139;-82
2022/12/21 09:25:58;;;;;;;165.50;29.33;;;6.00;99.90;;;;;;5094328;28;20097;-80
2022/12/21 09:28:24;;;;;;;141.85;27.77;;;6.00;99.90;;;;;;5093850;28;20071;-80
2022/12/21 09:30:49;;;;;;;164.80;28.85;;;6.00;99.90;;;;;;5094001;28;20060;-82
2022/12/21 09:33:15;;;;;;;187.85;29.35;;;5.90;99.90;;;;;;5095413;28;20119;-83
2022/12/21 09:35:41;;;;;;;200.13;30.77;;;6.10;99.90;;;;;;5095381;28;20373;-82
2022/12/21 09:38:07;;;;;;;170.55;28.60;;;5.80;99.90;;;;;;5095237;28;20126;-81
2022/12/21 09:40:33;;;;;;;171.48;28.58;;;6.40;99.90;;;;;;5094375;28;20044;-82
2022/12/21 09:43:11;;;;;;;151.30;29.25;;;6.30;99.90;;;;;;5077312;28;20148;-81
2022/12/21 09:46:06;;;;;;;170.10;28.65;;;6.50;99.90;;;;;;5094260;28;20054;-82
2022/12/21 09:48:41;;;;;;;148.88;28.73;;;6.30;99.90;;;;;;5094988;28;20036;-82
2022/12/21 09:51:13;;;;;;;152.35;29.10;;;6.30;99.90;;;;;;5094966;28;20036;-83
2022/12/21 09:53:48;;;;;;;162.10;31.02;;;6.20;99.90;;;;;;5076988;28;20514;-81
2022/12/21 09:56:24;;;;;;;175.90;31.30;;;6.60;99.90;;;;;;5094990;28;20445;-82
2022/12/21 09:58:52;;;;;;;174.05;32.58;;;6.70;99.90;;;;;;5093781;28;20079;-81
2022/12/21 10:01:26;;;;;;;178.80;33.15;;;6.40;99.90;;;;;;5093351;28;20051;-82
2022/12/21 10:04:10;;;;;;;205.35;34.25;;;6.40;99.90;;;;;;5093602;28;20392;-81
2022/12/21 10:07:00;;;;;;;248.75;34.67;;;6.10;99.90;;;;;;5093587;28;20091;-82
2022/12/21 10:09:53;;;;;;;215.38;35.40;;;6.30;99.90;;;;;;5093397;28;20102;-81
2022/12/21 10:12:38;;;;;;;283.45;38.42;;;6.70;99.90;;;;;;5093854;28;20349;-82
2022/12/21 10:15:26;;;;;;;196.35;34.92;;;6.60;99.90;;;;;;5093103;28;20521;-82
2022/12/21 10:18:12;;;;;;;203.45;37.72;;;6.40;99.90;;;;;;5093175;28;20046;-82
2022/12/21 10:21:00;;;;;;;217.10;39.05;;;6.70;99.90;;;;;;5093395;28;20052;-82
2022/12/21 10:23:28;;;;;;;210.32;34.60;;;6.90;99.90;;;;;;5093246;28;20109;-80
2022/12/21 10:25:59;;;;;;;198.13;38.85;;;7.00;99.90;;;;;;5094318;28;20052;-81
2022/12/21 10:28:43;;;;;;;172.93;34.83;;;6.70;99.90;;;;;;5093327;28;20557;-80
2022/12/21 10:31:14;;;;;;;160.73;36.22;;;6.60;99.90;;;;;;5093268;28;20449;-82
2022/12/21 10:33:42;;;;;;;149.60;39.78;;;6.50;99.90;;;;;;5110201;28;20079;-82
2022/12/21 10:36:18;;;;;;;132.70;35.42;;;7.00;99.90;;;;;;5094148;28;20052;-81
2022/12/21 10:38:44;;;;;;;125.18;34.67;;;6.80;99.90;;;;;;5092641;28;20052;-81
2022/12/21 10:41:27;;;;;;;149.15;37.10;;;6.90;99.90;;;;;;5094003;28;20052;-82
2022/12/21 10:43:54;;;;;;;141.45;36.17;;;7.20;99.90;;;;;;5092454;28;20130;-81
2022/12/21 10:46:23;;;;;;;125.97;33.75;;;7.20;99.90;;;;;;5092532;28;20569;-81
2022/12/21 10:48:55;;;;;;;129.05;34.38;;;6.60;99.90;;;;;;5093727;28;20084;-82
2022/12/21 10:51:32;;;;;;;125.55;34.50;;;7.80;99.90;;;;;;5093854;28;20044;-82
2022/12/21 10:54:03;;;;;;;125.97;36.15;;;7.10;99.90;;;;;;5093757;28;20477;-82
2022/12/21 10:56:32;;;;;;;128.60;36.33;;;7.40;99.90;;;;;;5093905;28;20048;-81
2022/12/21 10:59:18;;;;;;;118.68;35.58;;;7.50;99.90;;;;;;5091014;28;20050;-82
2022/12/21 11:01:44;;;;;;;118.50;33.55;;;7.50;99.90;;;;;;5093121;28;20105;-82
2022/12/21 11:04:16;;;;;;;112.55;36.42;;;7.70;99.90;;;;;;5093577;28;20048;-81
2022/12/21 11:06:55;;;;;;;117.07;35.25;;;7.80;99.90;;;;;;5092176;28;20476;-81
2022/12/21 11:09:44;;;;;;;108.60;35.00;;;7.40;99.90;;;;;;5092228;28;20040;-81
2022/12/21 11:12:20;;;;;;;101.85;33.90;;;7.60;99.90;;;;;;5093262;28;20059;-81
2022/12/21 11:14:46;;;;;;;99.03;34.30;;;7.60;99.90;;;;;;5092301;28;20426;-81
2022/12/21 11:17:21;;;;;;;94.70;32.33;;;8.10;99.90;;;;;;5092203;28;20048;-81
2022/12/21 11:19:48;;;;;;;106.47;33.00;;;8.10;99.90;;;;;;5093665;28;20378;-81
2022/12/21 11:22:21;;;;;;;93.78;30.63;;;8.20;99.90;;;;;;5094009;28;20060;-80
2022/12/21 11:24:49;;;;;;;84.93;29.20;;;8.20;99.90;;;;;;5092384;28;20097;-80
2022/12/21 11:27:31;;;;;;;91.57;29.77;;;8.10;99.90;;;;;;5092866;28;20067;-80
2022/12/21 11:30:05;;;;;;;79.35;27.25;;;8.00;99.90;;;;;;5092969;28;20059;-80
2022/12/21 11:32:32;;;;;;;73.43;25.30;;;8.00;99.90;;;;;;5093038;28;20052;-79
2022/12/21 11:34:59;;;;;;;82.13;27.00;;;7.80;99.90;;;;;;5058378;28;20051;-80
2022/12/21 11:37:37;;;;;;;70.32;24.67;;;8.00;99.90;;;;;;5092949;28;20126;-78
2022/12/21 11:40:24;;;;;;;64.28;23.10;;;7.30;99.90;;;;;;5091932;28;20194;-78
2022/12/21 11:42:58;;;;;;;70.30;25.27;;;7.80;99.90;;;;;;5092760;28;20044;-80
2022/12/21 11:45:49;;;;;;;58.67;21.88;;;7.80;99.90;;;;;;5092741;28;20633;-79
2022/12/21 11:48:30;;;;;;;55.85;22.35;;;7.90;99.90;;;;;;5092438;28;20173;-78
2022/12/21 11:51:31;;;;;;;56.03;20.27;;;7.70;99.90;;;;;;5092612;28;20093;-79
2022/12/21 11:54:18;;;;;;;53.80;19.73;;;7.90;99.90;;;;;;5092613;28;20123;-79
2022/12/21 11:57:00;;;;;;;51.10;20.45;;;8.50;99.90;;;;;;5092329;28;20055;-78
2022/12/21 11:59:39;;;;;;;60.78;19.75;;;8.10;99.90;;;;;;5091444;28;20048;-78
2022/12/21 12:02:34;;;;;;;64.18;19.27;;;7.80;99.90;;;;;;5091361;28;20125;-78
2022/12/21 12:05:06;;;;;;;50.85;19.10;;;8.10;99.90;;;;;;5092175;28;20799;-78
2022/12/21 12:07:58;;;;;;;48.35;18.15;;;8.20;99.90;;;;;;5091284;28;20044;-77
2022/12/21 12:10:35;;;;;;;48.08;17.60;;;8.20;99.90;;;;;;5091995;28;20122;-78
2022/12/21 12:13:07;;;;;;;45.72;16.90;;;8.30;99.90;;;;;;5092434;28;20044;-77
2022/12/21 12:15:47;;;;;;;55.60;17.73;;;7.80;99.90;;;;;;5092299;28;20403;-77
2022/12/21 12:18:22;;;;;;;52.10;17.27;;;8.30;99.90;;;;;;5092231;28;20113;-76
2022/12/21 12:21:10;;;;;;;50.30;17.10;;;8.30;99.90;;;;;;5092138;28;20475;-77
2022/12/21 12:23:45;;;;;;;46.40;16.33;;;7.80;99.90;;;;;;5093808;28;20462;-77
2022/12/21 12:26:32;;;;;;;41.05;16.42;;;8.20;99.90;;;;;;5074011;28;20066;-78
2022/12/21 12:29:32;;;;;;;43.67;16.73;;;8.50;99.90;;;;;;5091730;28;20064;-78
2022/12/21 12:32:12;;;;;;;42.85;15.20;;;8.60;99.90;;;;;;5092021;28;20056;-77
2022/12/21 12:34:51;;;;;;;39.90;16.23;;;8.40;99.90;;;;;;5090946;28;20512;-75
2022/12/21 12:37:36;;;;;;;47.70;16.52;;;8.10;99.90;;;;;;5091661;28;20060;-76
2022/12/21 12:40:13;;;;;;;43.90;15.18;;;8.50;99.90;;;;;;5091661;28;20127;-76
2022/12/21 12:42:45;;;;;;;37.50;16.08;;;8.70;99.90;;;;;;5090836;28;20056;-77
2022/12/21 12:45:48;;;;;;;46.60;16.40;;;8.80;99.90;;;;;;5091834;28;20055;-77
2022/12/21 12:48:28;;;;;;;43.42;15.82;;;8.80;99.90;;;;;;5090757;28;20052;-78
2022/12/21 12:51:10;;;;;;;38.92;15.82;;;8.90;99.90;;;;;;5091865;28;20055;-77
2022/12/21 12:53:49;;;;;;;33.60;15.25;;;8.90;99.90;;;;;;5091518;28;20052;-76
2022/12/21 12:56:31;;;;;;;42.90;16.23;;;9.30;99.90;;;;;;5091830;28;20178;-76
2022/12/21 12:59:07;;;;;;;44.05;16.10;;;9.30;99.90;;;;;;5091826;28;20070;-76
2022/12/21 13:01:44;;;;;;;39.33;15.37;;;9.40;99.90;;;;;;5091774;28;20051;-78
2022/12/21 13:04:31;;;;;;;40.85;13.77;;;9.40;99.90;;;;;;5091872;28;20054;-76
2022/12/21 13:07:09;;;;;;;33.88;15.38;;;9.40;99.90;;;;;;5091666;28;20047;-77
2022/12/21 13:09:40;;;;;;;46.28;16.98;;;9.80;99.90;;;;;;5091251;28;20048;-77
2022/12/21 13:12:20;;;;;;;36.63;14.00;;;9.60;99.90;;;;;;5090252;28;20059;-75